createdAt,value
2017-05-07T00:11:17.000Z,77.2
2017-05-07T00:27:57.000Z,77.6
2017-05-07T00:44:37.000Z,78
2017-05-07T01:01:16.000Z,78
2017-05-07T01:17:55.000Z,78.4
2017-05-07T01:34:33.000Z,78.8
2017-05-07T01:51:12.000Z,78.8
2017-05-07T02:07:51.000Z,79.2
2017-05-07T02:24:29.000Z,79.6
2017-05-07T02:41:07.000Z,80
2017-05-07T02:57:45.000Z,80.4
2017-05-07T03:14:23.000Z,80.4
2017-05-07T03:31:01.000Z,80.4
2017-05-07T03:47:40.000Z,80.8
2017-05-07T04:04:17.000Z,81.2
2017-05-07T04:20:55.000Z,81.2
2017-05-07T04:37:33.000Z,81.6
2017-05-07T04:54:13.000Z,81.2
2017-05-07T05:10:52.000Z,81.2
2017-05-07T05:27:31.000Z,81.2
2017-05-07T05:44:10.000Z,81.2
2017-05-07T06:00:49.000Z,81.2
2017-05-07T06:17:29.000Z,81.2
2017-05-07T06:34:10.000Z,81.2
2017-05-07T06:50:49.000Z,81.6
2017-05-07T07:00:49.000Z,81.6
2017-05-07T07:17:30.000Z,81.6
2017-05-07T07:34:10.000Z,82
2017-05-07T07:50:51.000Z,81.2
2017-05-07T08:07:32.000Z,81.2
2017-05-07T08:14:13.000Z,80.4
2017-05-07T08:30:55.000Z,79.2
2017-05-07T08:47:37.000Z,78.8
2017-05-07T09:00:59.000Z,78.8
2017-05-07T09:17:42.000Z,78
2017-05-07T09:34:24.000Z,77.6
2017-05-07T09:41:05.000Z,77.2
2017-05-07T09:47:46.000Z,76.8
2017-05-07T10:01:10.000Z,75.2
2017-05-07T10:17:54.000Z,73.6
2017-05-07T10:31:18.000Z,72
2017-05-07T10:48:04.000Z,71.2
2017-05-07T10:58:08.000Z,70
2017-05-07T11:14:55.000Z,68
2017-05-07T11:31:41.000Z,67.6
2017-05-07T11:48:27.000Z,65.6
2017-05-07T12:05:14.000Z,64
2017-05-07T12:11:57.000Z,63.6
2017-05-07T12:28:43.000Z,64
2017-05-07T12:45:30.000Z,63.6
2017-05-07T13:02:16.000Z,62.4
2017-05-07T13:19:02.000Z,60
2017-05-07T13:35:49.000Z,60.4
2017-05-07T13:39:11.000Z,58
2017-05-07T13:55:57.000Z,60.8
2017-05-07T14:06:01.000Z,58.8
2017-05-07T14:22:48.000Z,57.6
2017-05-07T14:39:35.000Z,56.8
2017-05-07T14:56:22.000Z,56.4
2017-05-07T15:13:09.000Z,56
2017-05-07T15:23:14.000Z,54.8
2017-05-07T15:29:56.000Z,56.4
2017-05-07T15:46:42.000Z,57.2
2017-05-07T16:03:28.000Z,56.8
2017-05-07T16:20:14.000Z,56.4
2017-05-07T16:36:59.000Z,57.2
2017-05-07T17:10:30.000Z,58
2017-05-07T17:27:15.000Z,58.4
2017-05-07T17:43:59.000Z,59.6
2017-05-07T18:00:44.000Z,60.4
2017-05-07T18:17:28.000Z,60.8
2017-05-07T18:34:11.000Z,61.6
2017-05-07T18:50:55.000Z,61.6
2017-05-07T19:07:39.000Z,61.6
2017-05-07T19:24:22.000Z,62.4
2017-05-07T19:41:04.000Z,62.8
2017-05-07T19:57:48.000Z,64
2017-05-07T20:14:30.000Z,62.8
2017-05-07T20:31:12.000Z,62
2017-05-07T20:47:54.000Z,62.4
2017-05-07T21:04:35.000Z,62.8
2017-05-07T21:21:17.000Z,63.6
2017-05-07T21:37:57.000Z,64.8
2017-05-07T21:54:38.000Z,65.6
2017-05-07T22:11:19.000Z,66.4
2017-05-07T22:28:00.000Z,66.8
2017-05-07T22:44:39.000Z,67.6
2017-05-07T23:01:19.000Z,68
2017-05-07T23:17:58.000Z,68.4
2017-05-07T23:34:38.000Z,68.4
2017-05-07T23:51:17.000Z,68
